Time,TemperatureF,DewpointF,PressureIn,WindDirection,WindDirectionDegrees,WindSpeedMPH,WindSpeedGustMPH,Humidity,HourlyPrecipIn,Conditions,Clouds,dailyrainin,SoftwareType,DateUTC
2013-09-28 00:13:00,60.0,53.0,30.17,East,99,0.0,1.0,77,0.00,,,0.00,,2013-09-28 04:13:00,
2013-09-28 00:25:00,59.0,52.0,30.17,ESE,106,0.0,1.0,77,0.00,,,0.00,,2013-09-28 04:25:00,
2013-09-28 00:43:00,59.0,52.0,30.16,North,4,0.0,1.0,78,0.00,,,0.00,,2013-09-28 04:43:00,
2013-09-28 00:54:00,59.0,52.0,30.16,North,4,0.0,1.0,79,0.00,,,0.00,,2013-09-28 04:54:00,
2013-09-28 01:13:00,58.0,52.0,30.17,North,4,0.0,1.0,80,0.00,,,0.00,,2013-09-28 05:13:00,
2013-09-28 01:22:00,58.0,52.0,30.16,North,6,0.0,1.0,81,0.00,,,0.00,,2013-09-28 05:22:00,
2013-09-28 01:53:00,57.0,52.0,30.16,SE,140,0.0,1.0,83,0.00,,,0.00,,2013-09-28 05:53:00,
2013-09-28 02:13:00,56.0,52.0,30.16,SE,140,0.0,1.0,85,0.00,,,0.00,,2013-09-28 06:13:00,
2013-09-28 02:22:00,56.0,52.0,30.16,SE,139,0.0,1.0,86,0.00,,,0.00,,2013-09-28 06:22:00,
2013-09-28 02:42:00,55.0,51.0,30.16,SE,139,0.0,1.0,87,0.00,,,0.00,,2013-09-28 06:42:00,
2013-09-28 02:52:00,55.0,52.0,30.16,SE,139,0.0,0.0,89,0.00,,,0.00,,2013-09-28 06:52:00,
2013-09-28 03:12:00,55.0,52.0,30.16,SE,139,0.0,0.0,89,0.00,,,0.00,,2013-09-28 07:12:00,
2013-09-28 03:22:00,55.0,52.0,30.15,SE,139,0.0,1.0,90,0.00,,,0.00,,2013-09-28 07:22:00,
2013-09-28 03:42:00,54.0,51.0,30.15,NNW,342,0.0,1.0,91,0.00,,,0.00,,2013-09-28 07:42:00,
2013-09-28 03:52:00,54.0,51.0,30.15,ENE,70,0.0,1.0,91,0.00,,,0.00,,2013-09-28 07:52:00,
2013-09-28 04:13:00,54.0,51.0,30.15,NNE,32,0.0,1.0,91,0.00,,,0.00,,2013-09-28 08:13:00,
2013-09-28 04:22:00,54.0,52.0,30.15,NNE,32,0.0,0.0,93,0.00,,,0.00,,2013-09-28 08:22:00,
2013-09-28 04:43:00,54.0,52.0,30.15,NNE,33,0.0,1.0,93,0.00,,,0.00,,2013-09-28 08:43:00,
2013-09-28 04:53:00,54.0,52.0,30.15,NE,55,0.0,1.0,92,0.00,,,0.00,,2013-09-28 08:53:00,
2013-09-28 05:12:00,54.0,52.0,30.15,NE,55,0.0,1.0,93,0.00,,,0.00,,2013-09-28 09:12:00,
2013-09-28 05:22:00,54.0,52.0,30.15,NE,55,0.0,1.0,93,0.00,,,0.00,,2013-09-28 09:22:00,
2013-09-28 05:54:00,53.0,51.0,30.15,NE,55,0.0,1.0,93,0.00,,,0.00,,2013-09-28 09:54:00,
2013-09-28 06:13:00,53.0,51.0,30.16,NE,55,0.0,0.0,93,0.00,,,0.00,,2013-09-28 10:13:00,
2013-09-28 06:22:00,53.0,51.0,30.16,NE,55,0.0,0.0,93,0.00,,,0.00,,2013-09-28 10:22:00,
2013-09-28 06:43:00,53.0,51.0,30.16,NE,55,0.0,0.0,94,0.00,,,0.00,,2013-09-28 10:43:00,
2013-09-28 06:52:00,52.0,50.0,30.17,NE,55,0.0,0.0,94,0.00,,,0.00,,2013-09-28 10:52:00,
2013-09-28 07:12:00,52.0,51.0,30.16,NE,55,0.0,0.0,95,0.00,,,0.00,,2013-09-28 11:12:00,
2013-09-28 07:22:00,52.0,51.0,30.17,NE,55,0.0,1.0,96,0.00,,,0.00,,2013-09-28 11:22:00,
2013-09-28 07:43:00,52.0,51.0,30.17,NE,55,0.0,0.0,96,0.00,,,0.00,,2013-09-28 11:43:00,
2013-09-28 07:52:00,52.0,51.0,30.16,NE,56,0.0,0.0,96,0.00,,,0.00,,2013-09-28 11:52:00,
2013-09-28 08:12:00,52.0,51.0,30.16,NE,56,0.0,0.0,96,0.00,,,0.00,,2013-09-28 12:12:00,
2013-09-28 08:22:00,52.0,51.0,30.17,SSW,202,0.0,1.0,96,0.00,,,0.00,,2013-09-28 12:22:00,
2013-09-28 08:42:00,52.0,51.0,30.17,SSW,203,0.0,0.0,95,0.00,,,0.00,,2013-09-28 12:42:00,
2013-09-28 08:52:00,53.0,52.0,30.17,SSW,202,0.0,0.0,95,0.00,,,0.00,,2013-09-28 12:52:00,
2013-09-28 09:12:00,53.0,51.0,30.17,SSW,202,0.0,0.0,94,0.00,,,0.00,,2013-09-28 13:12:00,
2013-09-28 09:22:00,54.0,52.0,30.18,SSW,202,0.0,0.0,93,0.00,,,0.00,,2013-09-28 13:22:00,
2013-09-28 09:52:00,57.0,53.0,30.18,South,176,0.0,3.0,88,0.00,,,0.00,,2013-09-28 13:52:00,
2013-09-28 10:12:00,59.0,54.0,30.19,South,173,1.0,3.0,85,0.00,,,0.00,,2013-09-28 14:12:00,
2013-09-28 10:22:00,60.0,56.0,30.19,South,179,0.0,1.0,86,0.00,,,0.00,,2013-09-28 14:22:00,
2013-09-28 10:42:00,62.0,57.0,30.19,SSE,159,0.0,2.0,83,0.00,,,0.00,,2013-09-28 14:42:00,
2013-09-28 10:52:00,63.0,56.0,30.19,SSE,158,0.0,2.0,79,0.00,,,0.00,,2013-09-28 14:52:00,
2013-09-28 11:12:00,65.0,56.0,30.19,SSE,167,1.0,3.0,73,0.00,,,0.00,,2013-09-28 15:12:00,
2013-09-28 11:23:00,67.0,56.0,30.18,SSW,204,1.0,3.0,69,0.00,,,0.00,,2013-09-28 15:23:00,
2013-09-28 11:44:00,69.0,57.0,30.17,SW,223,1.0,3.0,66,0.00,,,0.00,,2013-09-28 15:44:00,
2013-09-28 11:54:00,70.0,56.0,30.17,SE,125,1.0,4.0,62,0.00,,,0.00,,2013-09-28 15:54:00,
2013-09-28 12:14:00,72.0,57.0,30.16,SSE,160,1.0,4.0,59,0.00,,,0.00,,2013-09-28 16:14:00,
2013-09-28 12:24:00,73.0,56.0,30.16,SSE,154,2.0,4.0,56,0.00,,,0.00,,2013-09-28 16:24:00,
2013-09-28 12:43:00,75.0,57.0,30.15,South,179,4.0,5.0,54,0.00,,,0.00,,2013-09-28 16:43:00,
2013-09-28 12:54:00,75.0,56.0,30.15,SW,221,4.0,9.0,51,0.00,,,0.00,,2013-09-28 16:54:00,
2013-09-28 13:13:00,77.0,57.0,30.14,WSW,248,1.0,7.0,51,0.00,,,0.00,,2013-09-28 17:13:00,
2013-09-28 13:23:00,77.0,55.0,30.14,SSW,210,4.0,7.0,46,0.00,,,0.00,,2013-09-28 17:23:00,
2013-09-28 13:43:00,77.0,55.0,30.13,SSW,194,5.0,8.0,46,0.00,,,0.00,,2013-09-28 17:43:00,
2013-09-28 13:52:00,77.0,54.0,30.13,SSW,199,5.0,12.0,45,0.00,,,0.00,,2013-09-28 17:52:00,
2013-09-28 14:12:00,77.0,53.0,30.11,SE,146,3.0,6.0,44,0.00,,,0.00,,2013-09-28 18:12:00,
2013-09-28 14:22:00,78.0,56.0,30.10,SSE,162,2.0,10.0,46,0.00,,,0.00,,2013-09-28 18:22:00,
2013-09-28 14:42:00,78.0,54.0,30.09,SSW,204,3.0,7.0,44,0.00,,,0.00,,2013-09-28 18:42:00,
2013-09-28 14:52:00,79.0,55.0,30.09,ENE,76,3.0,12.0,44,0.00,,,0.00,,2013-09-28 18:52:00,
2013-09-28 15:11:00,80.0,55.0,30.08,SSW,210,1.0,4.0,43,0.00,,,0.00,,2013-09-28 19:11:00,
2013-09-28 15:22:00,80.0,56.0,30.07,SSE,160,1.0,7.0,44,0.00,,,0.00,,2013-09-28 19:22:00,
2013-09-28 15:42:00,81.0,56.0,30.07,South,191,2.0,8.0,43,0.00,,,0.00,,2013-09-28 19:42:00,
2013-09-28 15:52:00,81.0,54.0,30.06,SSW,200,3.0,7.0,40,0.00,,,0.00,,2013-09-28 19:52:00,
2013-09-28 16:12:00,81.0,54.0,30.06,SSW,199,6.0,10.0,39,0.00,,,0.00,,2013-09-28 20:12:00,
2013-09-28 16:22:00,81.0,54.0,30.05,South,176,4.0,10.0,40,0.00,,,0.00,,2013-09-28 20:22:00,
2013-09-28 16:43:00,82.0,54.0,30.05,East,98,3.0,10.0,38,0.00,,,0.00,,2013-09-28 20:43:00,
2013-09-28 16:53:00,83.0,54.0,30.05,SSW,205,2.0,8.0,37,0.00,,,0.00,,2013-09-28 20:53:00,
2013-09-28 17:12:00,82.0,53.0,30.05,SSW,208,4.0,10.0,37,0.00,,,0.00,,2013-09-28 21:12:00,
2013-09-28 17:23:00,82.0,52.0,30.05,WSW,248,6.0,11.0,35,0.00,,,0.00,,2013-09-28 21:23:00,
2013-09-28 17:44:00,82.0,54.0,30.04,NNE,28,3.0,9.0,38,0.00,,,0.00,,2013-09-28 21:44:00,
2013-09-28 17:55:00,83.0,53.0,30.05,SSW,204,4.0,8.0,36,0.00,,,0.00,,2013-09-28 21:55:00,
2013-09-28 18:14:00,83.0,55.0,30.04,South,176,2.0,5.0,38,0.00,,,0.00,,2013-09-28 22:14:00,
2013-09-28 18:23:00,84.0,55.0,30.04,SSE,156,1.0,3.0,37,0.00,,,0.00,,2013-09-28 22:23:00,
2013-09-28 18:43:00,83.0,54.0,30.03,SSE,148,2.0,5.0,37,0.00,,,0.00,,2013-09-28 22:43:00,
2013-09-28 18:54:00,82.0,55.0,30.03,SE,138,1.0,4.0,39,0.00,,,0.00,,2013-09-28 22:54:00,
2013-09-28 19:13:00,82.0,56.0,30.03,SSE,166,0.0,2.0,41,0.00,,,0.00,,2013-09-28 23:13:00,
2013-09-28 19:22:00,80.0,55.0,30.03,SSE,153,0.0,2.0,43,0.00,,,0.00,,2013-09-28 23:22:00,
2013-09-28 19:43:00,78.0,56.0,30.03,SE,140,0.0,2.0,46,0.00,,,0.00,,2013-09-28 23:43:00,
2013-09-28 19:53:00,75.0,56.0,30.03,SSE,167,0.0,1.0,51,0.00,,,0.00,,2013-09-28 23:53:00,
2013-09-28 20:11:00,73.0,58.0,30.03,SSE,165,0.0,1.0,60,0.00,,,0.00,,2013-09-29 00:11:00,
2013-09-28 20:22:00,71.0,58.0,30.03,SSE,151,0.0,1.0,64,0.00,,,0.00,,2013-09-29 00:22:00,
2013-09-28 20:43:00,70.0,56.0,30.03,SE,141,0.0,2.0,62,0.00,,,0.00,,2013-09-29 00:43:00,
2013-09-28 20:52:00,70.0,55.0,30.02,SSE,155,0.0,2.0,59,0.00,,,0.00,,2013-09-29 00:52:00,
2013-09-28 21:12:00,70.0,55.0,30.03,SE,139,0.0,2.0,60,0.00,,,0.00,,2013-09-29 01:12:00,
2013-09-28 21:22:00,69.0,55.0,30.03,SSW,210,1.0,4.0,60,0.00,,,0.00,,2013-09-29 01:22:00,
2013-09-28 21:43:00,70.0,55.0,30.02,South,169,1.0,3.0,60,0.00,,,0.00,,2013-09-29 01:43:00,
2013-09-28 21:52:00,69.0,55.0,30.02,SE,139,0.0,2.0,60,0.00,,,0.00,,2013-09-29 01:52:00,
2013-09-28 22:12:00,69.0,55.0,30.02,SSE,151,1.0,2.0,62,0.00,,,0.00,,2013-09-29 02:12:00,
2013-09-28 22:22:00,68.0,55.0,30.02,SSE,155,0.0,2.0,63,0.00,,,0.00,,2013-09-29 02:22:00,
2013-09-28 22:43:00,68.0,55.0,30.02,SSE,161,0.0,1.0,64,0.00,,,0.00,,2013-09-29 02:43:00,
2013-09-28 22:53:00,67.0,55.0,30.02,SSE,160,0.0,2.0,65,0.00,,,0.00,,2013-09-29 02:53:00,
2013-09-28 23:12:00,67.0,55.0,30.02,SSE,152,0.0,2.0,66,0.00,,,0.00,,2013-09-29 03:12:00,
2013-09-28 23:23:00,67.0,56.0,30.03,SSE,165,0.0,2.0,67,0.00,,,0.00,,2013-09-29 03:23:00,
2013-09-28 23:55:00,67.0,56.0,30.03,SSW,213,1.0,3.0,68,0.00,,,0.00,,2013-09-29 03:55:00,